sensor_id;sensor_type;location;lat;lon;timestamp;P1;durP1;ratioP1;P2;durP2;ratioP2
19883;SDS011;10104;50.732;10.174;2023-03-12T00:01:37;20.40;;;10.60;;
19883;SDS011;10104;50.732;10.174;2023-03-12T00:04:00;14.57;;;6.87;;
19883;SDS011;10104;50.732;10.174;2023-03-12T00:06:22;18.10;;;6.63;;
19883;SDS011;10104;50.732;10.174;2023-03-12T00:08:44;19.47;;;9.47;;
19883;SDS011;10104;50.732;10.174;2023-03-12T00:11:09;17.93;;;7.57;;
19883;SDS011;10104;50.732;10.174;2023-03-12T00:13:32;17.50;;;7.10;;
19883;SDS011;10104;50.732;10.174;2023-03-12T00:15:54;13.23;;;6.10;;
19883;SDS011;10104;50.732;10.174;2023-03-12T00:18:15;22.93;;;10.20;;
19883;SDS011;10104;50.732;10.174;2023-03-12T00:20:37;16.63;;;6.37;;
19883;SDS011;10104;50.732;10.174;2023-03-12T00:22:59;14.87;;;7.57;;
19883;SDS011;10104;50.732;10.174;2023-03-12T00:25:20;16.90;;;7.73;;
19883;SDS011;10104;50.732;10.174;2023-03-12T00:27:42;16.70;;;6.97;;
19883;SDS011;10104;50.732;10.174;2023-03-12T00:30:04;13.53;;;5.70;;
19883;SDS011;10104;50.732;10.174;2023-03-12T00:32:26;12.33;;;5.80;;
19883;SDS011;10104;50.732;10.174;2023-03-12T00:34:51;12.13;;;4.60;;
19883;SDS011;10104;50.732;10.174;2023-03-12T00:37:13;8.00;;;3.93;;
19883;SDS011;10104;50.732;10.174;2023-03-12T00:39:35;7.03;;;3.50;;
19883;SDS011;10104;50.732;10.174;2023-03-12T00:41:57;9.13;;;4.53;;
19883;SDS011;10104;50.732;10.174;2023-03-12T00:44:18;12.87;;;4.90;;
19883;SDS011;10104;50.732;10.174;2023-03-12T00:46:40;9.53;;;4.47;;
19883;SDS011;10104;50.732;10.174;2023-03-12T00:49:01;9.07;;;4.60;;
19883;SDS011;10104;50.732;10.174;2023-03-12T00:51:23;8.77;;;3.33;;
19883;SDS011;10104;50.732;10.174;2023-03-12T00:53:44;4.70;;;2.77;;
19883;SDS011;10104;50.732;10.174;2023-03-12T00:56:06;8.00;;;3.67;;
19883;SDS011;10104;50.732;10.174;2023-03-12T00:58:28;8.13;;;3.63;;
19883;SDS011;10104;50.732;10.174;2023-03-12T01:00:49;6.23;;;3.50;;
19883;SDS011;10104;50.732;10.174;2023-03-12T01:03:11;9.40;;;3.17;;
19883;SDS011;10104;50.732;10.174;2023-03-12T01:05:33;8.50;;;3.07;;
19883;SDS011;10104;50.732;10.174;2023-03-12T01:07:57;7.30;;;3.07;;
19883;SDS011;10104;50.732;10.174;2023-03-12T01:10:19;7.07;;;2.70;;
19883;SDS011;10104;50.732;10.174;2023-03-12T01:12:42;6.67;;;2.70;;
19883;SDS011;10104;50.732;10.174;2023-03-12T01:15:03;8.13;;;3.17;;
19883;SDS011;10104;50.732;10.174;2023-03-12T01:17:25;6.17;;;3.23;;
19883;SDS011;10104;50.732;10.174;2023-03-12T01:19:47;10.50;;;3.50;;
19883;SDS011;10104;50.732;10.174;2023-03-12T01:22:08;9.73;;;4.90;;
19883;SDS011;10104;50.732;10.174;2023-03-12T01:24:30;7.30;;;3.53;;
19883;SDS011;10104;50.732;10.174;2023-03-12T01:26:51;10.40;;;5.70;;
19883;SDS011;10104;50.732;10.174;2023-03-12T01:29:13;12.50;;;5.53;;
19883;SDS011;10104;50.732;10.174;2023-03-12T01:31:34;13.13;;;5.40;;
19883;SDS011;10104;50.732;10.174;2023-03-12T01:33:56;10.07;;;4.73;;
19883;SDS011;10104;50.732;10.174;2023-03-12T01:36:19;11.07;;;4.93;;
19883;SDS011;10104;50.732;10.174;2023-03-12T01:38:45;10.90;;;5.30;;
19883;SDS011;10104;50.732;10.174;2023-03-12T01:41:07;11.60;;;6.40;;
19883;SDS011;10104;50.732;10.174;2023-03-12T01:43:29;10.30;;;5.53;;
19883;SDS011;10104;50.732;10.174;2023-03-12T01:48:40;10.17;;;4.83;;
19883;SDS011;10104;50.732;10.174;2023-03-12T01:51:05;10.03;;;5.07;;
19883;SDS011;10104;50.732;10.174;2023-03-12T01:53:29;11.77;;;5.33;;
19883;SDS011;10104;50.732;10.174;2023-03-12T01:55:51;10.53;;;4.80;;
19883;SDS011;10104;50.732;10.174;2023-03-12T01:58:13;9.07;;;4.53;;
19883;SDS011;10104;50.732;10.174;2023-03-12T02:00:35;12.80;;;4.93;;
19883;SDS011;10104;50.732;10.174;2023-03-12T02:02:58;9.20;;;4.53;;
19883;SDS011;10104;50.732;10.174;2023-03-12T02:06:07;10.67;;;4.67;;
19883;SDS011;10104;50.732;10.174;2023-03-12T02:08:14;8.00;;;4.10;;
19883;SDS011;10104;50.732;10.174;2023-03-12T02:10:37;9.97;;;3.40;;
19883;SDS011;10104;50.732;10.174;2023-03-12T02:12:58;6.70;;;3.70;;
19883;SDS011;10104;50.732;10.174;2023-03-12T02:15:20;6.20;;;3.87;;
19883;SDS011;10104;50.732;10.174;2023-03-12T02:17:42;8.03;;;4.00;;
19883;SDS011;10104;50.732;10.174;2023-03-12T02:22:33;7.93;;;3.10;;
19883;SDS011;10104;50.732;10.174;2023-03-12T02:24:57;5.50;;;3.13;;
19883;SDS011;10104;50.732;10.174;2023-03-12T02:27:24;8.33;;;3.30;;
19883;SDS011;10104;50.732;10.174;2023-03-12T02:29:46;13.30;;;5.47;;
19883;SDS011;10104;50.732;10.174;2023-03-12T02:32:08;18.53;;;7.00;;
19883;SDS011;10104;50.732;10.174;2023-03-12T02:34:35;17.63;;;7.20;;
19883;SDS011;10104;50.732;10.174;2023-03-12T02:36:57;15.97;;;7.07;;
19883;SDS011;10104;50.732;10.174;2023-03-12T02:39:18;20.07;;;7.27;;
19883;SDS011;10104;50.732;10.174;2023-03-12T02:41:42;14.93;;;6.90;;
19883;SDS011;10104;50.732;10.174;2023-03-12T02:44:19;12.10;;;5.47;;
19883;SDS011;10104;50.732;10.174;2023-03-12T02:46:44;15.83;;;6.20;;
19883;SDS011;10104;50.732;10.174;2023-03-12T02:49:11;17.60;;;5.63;;
19883;SDS011;10104;50.732;10.174;2023-03-12T02:51:33;10.07;;;4.57;;
19883;SDS011;10104;50.732;10.174;2023-03-12T02:53:55;9.27;;;3.97;;
19883;SDS011;10104;50.732;10.174;2023-03-12T02:56:16;9.13;;;3.60;;
19883;SDS011;10104;50.732;10.174;2023-03-12T02:58:38;8.03;;;3.70;;
19883;SDS011;10104;50.732;10.174;2023-03-12T03:00:59;9.33;;;3.33;;
19883;SDS011;10104;50.732;10.174;2023-03-12T03:03:21;5.07;;;3.07;;
19883;SDS011;10104;50.732;10.174;2023-03-12T03:05:42;4.87;;;2.60;;
19883;SDS011;10104;50.732;10.174;2023-03-12T03:08:04;12.43;;;6.40;;
19883;SDS011;10104;50.732;10.174;2023-03-12T03:10:26;9.63;;;5.10;;
19883;SDS011;10104;50.732;10.174;2023-03-12T03:12:48;9.33;;;5.13;;
19883;SDS011;10104;50.732;10.174;2023-03-12T03:15:10;12.90;;;6.40;;
19883;SDS011;10104;50.732;10.174;2023-03-12T03:17:32;35.20;;;16.03;;
19883;SDS011;10104;50.732;10.174;2023-03-12T03:19:53;19.43;;;8.40;;
19883;SDS011;10104;50.732;10.174;2023-03-12T03:22:15;13.60;;;6.70;;
19883;SDS011;10104;50.732;10.174;2023-03-12T03:24:37;15.40;;;8.57;;
19883;SDS011;10104;50.732;10.174;2023-03-12T03:26:58;18.67;;;9.47;;
19883;SDS011;10104;50.732;10.174;2023-03-12T03:29:20;13.97;;;7.53;;
19883;SDS011;10104;50.732;10.174;2023-03-12T03:31:41;13.83;;;7.90;;
19883;SDS011;10104;50.732;10.174;2023-03-12T03:34:03;14.03;;;8.00;;
19883;SDS011;10104;50.732;10.174;2023-03-12T03:36:25;17.33;;;8.00;;
19883;SDS011;10104;50.732;10.174;2023-03-12T03:38:46;14.53;;;8.43;;
19883;SDS011;10104;50.732;10.174;2023-03-12T03:41:09;12.50;;;6.27;;
19883;SDS011;10104;50.732;10.174;2023-03-12T03:43:31;7.57;;;4.63;;
19883;SDS011;10104;50.732;10.174;2023-03-12T03:45:56;9.00;;;4.33;;
19883;SDS011;10104;50.732;10.174;2023-03-12T03:48:19;7.37;;;4.33;;
19883;SDS011;10104;50.732;10.174;2023-03-12T03:50:40;4.97;;;3.10;;
19883;SDS011;10104;50.732;10.174;2023-03-12T03:53:02;5.87;;;2.53;;
19883;SDS011;10104;50.732;10.174;2023-03-12T03:55:23;5.53;;;2.80;;
19883;SDS011;10104;50.732;10.174;2023-03-12T03:57:46;5.40;;;3.07;;
19883;SDS011;10104;50.732;10.174;2023-03-12T04:00:08;6.10;;;2.77;;
19883;SDS011;10104;50.732;10.174;2023-03-12T04:02:33;7.03;;;3.63;;
19883;SDS011;10104;50.732;10.174;2023-03-12T04:04:58;9.97;;;4.80;;
19883;SDS011;10104;50.732;10.174;2023-03-12T04:07:20;13.10;;;4.80;;
19883;SDS011;10104;50.732;10.174;2023-03-12T04:09:41;12.33;;;4.50;;
19883;SDS011;10104;50.732;10.174;2023-03-12T04:12:03;7.47;;;2.93;;
19883;SDS011;10104;50.732;10.174;2023-03-12T04:14:25;5.80;;;3.20;;
19883;SDS011;10104;50.732;10.174;2023-03-12T04:16:46;4.70;;;2.80;;
19883;SDS011;10104;50.732;10.174;2023-03-12T04:19:08;4.37;;;2.63;;
19883;SDS011;10104;50.732;10.174;2023-03-12T04:21:29;7.50;;;4.07;;
19883;SDS011;10104;50.732;10.174;2023-03-12T04:23:51;8.80;;;5.43;;
19883;SDS011;10104;50.732;10.174;2023-03-12T04:26:12;10.57;;;5.33;;
19883;SDS011;10104;50.732;10.174;2023-03-12T04:28:34;6.83;;;3.60;;
19883;SDS011;10104;50.732;10.174;2023-03-12T04:31:00;6.30;;;3.13;;
19883;SDS011;10104;50.732;10.174;2023-03-12T04:33:23;7.77;;;2.40;;
19883;SDS011;10104;50.732;10.174;2023-03-12T04:35:49;4.47;;;2.80;;
19883;SDS011;10104;50.732;10.174;2023-03-12T04:38:12;5.50;;;2.70;;
19883;SDS011;10104;50.732;10.174;2023-03-12T04:40:34;7.57;;;3.30;;
19883;SDS011;10104;50.732;10.174;2023-03-12T04:42:55;5.93;;;3.23;;
19883;SDS011;10104;50.732;10.174;2023-03-12T04:45:17;6.07;;;3.50;;
19883;SDS011;10104;50.732;10.174;2023-03-12T04:47:38;7.53;;;3.20;;
19883;SDS011;10104;50.732;10.174;2023-03-12T04:50:00;6.20;;;3.20;;
19883;SDS011;10104;50.732;10.174;2023-03-12T04:52:21;4.63;;;2.80;;
19883;SDS011;10104;50.732;10.174;2023-03-12T04:54:43;4.83;;;2.70;;
19883;SDS011;10104;50.732;10.174;2023-03-12T04:57:08;4.67;;;3.00;;
19883;SDS011;10104;50.732;10.174;2023-03-12T04:59:29;5.23;;;2.87;;
19883;SDS011;10104;50.732;10.174;2023-03-12T05:01:51;11.10;;;5.83;;
19883;SDS011;10104;50.732;10.174;2023-03-12T05:04:13;13.10;;;6.73;;
19883;SDS011;10104;50.732;10.174;2023-03-12T05:06:34;7.13;;;3.37;;
19883;SDS011;10104;50.732;10.174;2023-03-12T05:08:56;4.37;;;3.00;;
19883;SDS011;10104;50.732;10.174;2023-03-12T05:11:18;5.50;;;3.20;;
19883;SDS011;10104;50.732;10.174;2023-03-12T05:13:40;5.27;;;3.17;;
19883;SDS011;10104;50.732;10.174;2023-03-12T05:16:02;7.37;;;3.70;;
19883;SDS011;10104;50.732;10.174;2023-03-12T05:18:24;10.40;;;7.10;;
19883;SDS011;10104;50.732;10.174;2023-03-12T05:20:46;9.70;;;5.87;;
19883;SDS011;10104;50.732;10.174;2023-03-12T05:23:17;9.90;;;5.40;;
19883;SDS011;10104;50.732;10.174;2023-03-12T05:25:39;8.73;;;5.10;;
19883;SDS011;10104;50.732;10.174;2023-03-12T05:28:01;10.13;;;5.10;;
19883;SDS011;10104;50.732;10.174;2023-03-12T05:30:22;8.20;;;4.70;;
19883;SDS011;10104;50.732;10.174;2023-03-12T05:32:44;9.07;;;4.60;;
19883;SDS011;10104;50.732;10.174;2023-03-12T05:35:05;8.17;;;4.53;;
19883;SDS011;10104;50.732;10.174;2023-03-12T05:37:27;9.33;;;4.60;;
19883;SDS011;10104;50.732;10.174;2023-03-12T05:39:49;6.73;;;3.97;;
19883;SDS011;10104;50.732;10.174;2023-03-12T05:42:10;7.50;;;3.20;;
19883;SDS011;10104;50.732;10.174;2023-03-12T05:44:31;6.63;;;3.60;;
19883;SDS011;10104;50.732;10.174;2023-03-12T05:46:55;4.83;;;2.80;;
19883;SDS011;10104;50.732;10.174;2023-03-12T05:49:19;5.83;;;2.90;;
19883;SDS011;10104;50.732;10.174;2023-03-12T05:51:41;6.30;;;3.17;;
19883;SDS011;10104;50.732;10.174;2023-03-12T05:54:03;7.03;;;2.83;;
19883;SDS011;10104;50.732;10.174;2023-03-12T05:56:25;4.33;;;3.10;;
19883;SDS011;10104;50.732;10.174;2023-03-12T05:58:47;9.00;;;3.33;;
19883;SDS011;10104;50.732;10.174;2023-03-12T06:01:11;7.63;;;2.80;;
19883;SDS011;10104;50.732;10.174;2023-03-12T06:03:33;7.00;;;2.97;;
19883;SDS011;10104;50.732;10.174;2023-03-12T06:05:55;6.33;;;3.00;;
19883;SDS011;10104;50.732;10.174;2023-03-12T06:08:17;7.93;;;3.10;;
19883;SDS011;10104;50.732;10.174;2023-03-12T06:10:38;5.77;;;3.30;;
19883;SDS011;10104;50.732;10.174;2023-03-12T06:13:00;12.20;;;3.77;;
19883;SDS011;10104;50.732;10.174;2023-03-12T06:15:21;11.07;;;4.73;;
19883;SDS011;10104;50.732;10.174;2023-03-12T06:17:43;9.43;;;4.13;;
19883;SDS011;10104;50.732;10.174;2023-03-12T06:20:05;6.83;;;3.73;;
19883;SDS011;10104;50.732;10.174;2023-03-12T06:22:27;8.90;;;3.53;;
19883;SDS011;10104;50.732;10.174;2023-03-12T06:24:49;14.73;;;5.73;;
19883;SDS011;10104;50.732;10.174;2023-03-12T06:27:11;14.17;;;5.80;;
19883;SDS011;10104;50.732;10.174;2023-03-12T06:29:32;7.03;;;3.33;;
19883;SDS011;10104;50.732;10.174;2023-03-12T06:31:54;7.00;;;3.10;;
19883;SDS011;10104;50.732;10.174;2023-03-12T06:34:16;4.63;;;2.67;;
19883;SDS011;10104;50.732;10.174;2023-03-12T06:36:38;5.87;;;3.00;;
19883;SDS011;10104;50.732;10.174;2023-03-12T06:38:59;7.37;;;2.67;;
19883;SDS011;10104;50.732;10.174;2023-03-12T06:41:21;9.43;;;3.20;;
19883;SDS011;10104;50.732;10.174;2023-03-12T06:43:42;7.73;;;3.50;;
19883;SDS011;10104;50.732;10.174;2023-03-12T06:46:05;8.33;;;3.77;;
19883;SDS011;10104;50.732;10.174;2023-03-12T06:48:29;6.63;;;3.20;;
19883;SDS011;10104;50.732;10.174;2023-03-12T06:50:53;5.93;;;3.37;;
19883;SDS011;10104;50.732;10.174;2023-03-12T06:53:15;7.53;;;2.70;;
19883;SDS011;10104;50.732;10.174;2023-03-12T06:55:37;3.87;;;2.63;;
19883;SDS011;10104;50.732;10.174;2023-03-12T06:57:59;6.30;;;2.83;;
19883;SDS011;10104;50.732;10.174;2023-03-12T07:00:20;6.67;;;2.70;;
19883;SDS011;10104;50.732;10.174;2023-03-12T07:02:42;5.90;;;2.73;;
19883;SDS011;10104;50.732;10.174;2023-03-12T07:05:04;6.03;;;2.50;;
19883;SDS011;10104;50.732;10.174;2023-03-12T07:07:26;4.77;;;2.43;;
19883;SDS011;10104;50.732;10.174;2023-03-12T07:09:47;5.23;;;3.23;;
19883;SDS011;10104;50.732;10.174;2023-03-12T07:12:08;5.20;;;2.50;;
19883;SDS011;10104;50.732;10.174;2023-03-12T07:14:30;6.30;;;3.10;;
19883;SDS011;10104;50.732;10.174;2023-03-12T07:16:51;6.20;;;3.63;;
19883;SDS011;10104;50.732;10.174;2023-03-12T07:19:13;5.20;;;2.97;;
19883;SDS011;10104;50.732;10.174;2023-03-12T07:21:34;6.43;;;3.03;;
19883;SDS011;10104;50.732;10.174;2023-03-12T07:23:56;9.87;;;4.53;;
19883;SDS011;10104;50.732;10.174;2023-03-12T07:26:18;7.80;;;4.33;;
19883;SDS011;10104;50.732;10.174;2023-03-12T07:28:40;10.20;;;3.33;;
19883;SDS011;10104;50.732;10.174;2023-03-12T07:31:02;5.20;;;3.70;;
19883;SDS011;10104;50.732;10.174;2023-03-12T07:33:24;4.93;;;3.13;;
19883;SDS011;10104;50.732;10.174;2023-03-12T07:35:47;7.73;;;3.73;;
19883;SDS011;10104;50.732;10.174;2023-03-12T07:38:12;4.90;;;2.80;;
19883;SDS011;10104;50.732;10.174;2023-03-12T07:40:34;5.67;;;3.77;;
19883;SDS011;10104;50.732;10.174;2023-03-12T07:42:56;7.53;;;2.87;;
19883;SDS011;10104;50.732;10.174;2023-03-12T07:45:19;7.33;;;4.03;;
19883;SDS011;10104;50.732;10.174;2023-03-12T07:47:41;4.20;;;3.50;;
19883;SDS011;10104;50.732;10.174;2023-03-12T07:50:02;6.27;;;4.40;;
19883;SDS011;10104;50.732;10.174;2023-03-12T07:52:24;6.83;;;3.63;;
19883;SDS011;10104;50.732;10.174;2023-03-12T07:54:46;8.03;;;3.23;;
19883;SDS011;10104;50.732;10.174;2023-03-12T07:57:08;6.33;;;2.50;;
19883;SDS011;10104;50.732;10.174;2023-03-12T07:59:29;5.47;;;3.80;;
19883;SDS011;10104;50.732;10.174;2023-03-12T08:01:51;5.83;;;3.17;;
19883;SDS011;10104;50.732;10.174;2023-03-12T08:04:12;5.97;;;2.60;;
19883;SDS011;10104;50.732;10.174;2023-03-12T08:06:34;3.93;;;2.80;;
19883;SDS011;10104;50.732;10.174;2023-03-12T08:08:56;6.83;;;3.00;;
19883;SDS011;10104;50.732;10.174;2023-03-12T08:11:17;3.87;;;2.60;;
19883;SDS011;10104;50.732;10.174;2023-03-12T08:13:39;5.30;;;2.87;;
19883;SDS011;10104;50.732;10.174;2023-03-12T08:16:00;4.63;;;2.90;;
19883;SDS011;10104;50.732;10.174;2023-03-12T08:18:22;4.97;;;2.53;;
19883;SDS011;10104;50.732;10.174;2023-03-12T08:20:45;5.97;;;3.00;;
19883;SDS011;10104;50.732;10.174;2023-03-12T08:23:10;7.17;;;2.83;;
19883;SDS011;10104;50.732;10.174;2023-03-12T08:25:32;6.07;;;3.33;;
19883;SDS011;10104;50.732;10.174;2023-03-12T08:27:53;8.40;;;3.00;;
19883;SDS011;10104;50.732;10.174;2023-03-12T08:30:15;8.83;;;2.93;;
19883;SDS011;10104;50.732;10.174;2023-03-12T08:32:36;7.07;;;2.70;;
19883;SDS011;10104;50.732;10.174;2023-03-12T08:34:58;8.27;;;2.40;;
19883;SDS011;10104;50.732;10.174;2023-03-12T08:37:20;6.40;;;2.60;;
19883;SDS011;10104;50.732;10.174;2023-03-12T08:39:43;8.83;;;2.67;;
19883;SDS011;10104;50.732;10.174;2023-03-12T08:42:04;6.93;;;3.07;;
19883;SDS011;10104;50.732;10.174;2023-03-12T08:44:27;6.20;;;2.53;;
19883;SDS011;10104;50.732;10.174;2023-03-12T08:46:50;6.90;;;2.90;;
19883;SDS011;10104;50.732;10.174;2023-03-12T08:49:12;5.87;;;2.63;;
19883;SDS011;10104;50.732;10.174;2023-03-12T08:51:34;6.47;;;2.90;;
19883;SDS011;10104;50.732;10.174;2023-03-12T08:53:55;5.23;;;2.80;;
19883;SDS011;10104;50.732;10.174;2023-03-12T08:56:17;6.83;;;2.80;;
19883;SDS011;10104;50.732;10.174;2023-03-12T08:58:38;6.60;;;2.90;;
19883;SDS011;10104;50.732;10.174;2023-03-12T09:01:00;5.30;;;2.77;;
19883;SDS011;10104;50.732;10.174;2023-03-12T09:03:22;8.77;;;3.20;;
19883;SDS011;10104;50.732;10.174;2023-03-12T09:05:44;4.37;;;2.40;;
19883;SDS011;10104;50.732;10.174;2023-03-12T09:08:06;5.70;;;2.83;;
19883;SDS011;10104;50.732;10.174;2023-03-12T09:10:28;6.97;;;2.70;;
19883;SDS011;10104;50.732;10.174;2023-03-12T09:12:51;4.97;;;2.70;;
19883;SDS011;10104;50.732;10.174;2023-03-12T09:15:12;5.83;;;2.70;;
19883;SDS011;10104;50.732;10.174;2023-03-12T09:17:34;5.37;;;2.37;;
19883;SDS011;10104;50.732;10.174;2023-03-12T09:19:56;6.63;;;2.37;;
19883;SDS011;10104;50.732;10.174;2023-03-12T09:22:17;5.53;;;2.50;;
19883;SDS011;10104;50.732;10.174;2023-03-12T09:24:39;6.87;;;2.97;;
19883;SDS011;10104;50.732;10.174;2023-03-12T09:27:00;9.30;;;3.50;;
19883;SDS011;10104;50.732;10.174;2023-03-12T09:29:22;5.90;;;2.93;;
19883;SDS011;10104;50.732;10.174;2023-03-12T09:31:44;5.20;;;2.83;;
19883;SDS011;10104;50.732;10.174;2023-03-12T09:34:06;4.40;;;3.00;;
19883;SDS011;10104;50.732;10.174;2023-03-12T09:36:27;7.43;;;2.77;;
19883;SDS011;10104;50.732;10.174;2023-03-12T09:38:49;5.30;;;2.83;;
19883;SDS011;10104;50.732;10.174;2023-03-12T09:41:20;6.03;;;2.90;;
19883;SDS011;10104;50.732;10.174;2023-03-12T09:43:50;9.67;;;3.17;;
19883;SDS011;10104;50.732;10.174;2023-03-12T09:46:21;7.27;;;2.97;;
19883;SDS011;10104;50.732;10.174;2023-03-12T09:48:47;6.03;;;3.13;;
19883;SDS011;10104;50.732;10.174;2023-03-12T09:51:21;5.30;;;3.17;;
19883;SDS011;10104;50.732;10.174;2023-03-12T09:53:51;5.90;;;2.60;;
19883;SDS011;10104;50.732;10.174;2023-03-12T09:56:17;5.37;;;2.80;;
19883;SDS011;10104;50.732;10.174;2023-03-12T09:58:40;7.70;;;2.87;;
19883;SDS011;10104;50.732;10.174;2023-03-12T10:10:54;7.77;;;3.27;;
19883;SDS011;10104;50.732;10.174;2023-03-12T10:16:15;7.10;;;3.20;;
19883;SDS011;10104;50.732;10.174;2023-03-12T10:26:53;7.47;;;3.50;;
19883;SDS011;10104;50.732;10.174;2023-03-12T10:29:18;8.23;;;3.90;;
19883;SDS011;10104;50.732;10.174;2023-03-12T10:31:54;6.13;;;2.83;;
19883;SDS011;10104;50.732;10.174;2023-03-12T10:34:30;9.17;;;3.93;;
19883;SDS011;10104;50.732;10.174;2023-03-12T10:36:58;7.43;;;4.10;;
19883;SDS011;10104;50.732;10.174;2023-03-12T10:39:23;8.20;;;4.20;;
19883;SDS011;10104;50.732;10.174;2023-03-12T10:41:45;7.73;;;4.33;;
19883;SDS011;10104;50.732;10.174;2023-03-12T10:44:08;8.10;;;4.30;;
19883;SDS011;10104;50.732;10.174;2023-03-12T10:49:34;15.27;;;6.80;;
19883;SDS011;10104;50.732;10.174;2023-03-12T10:54:37;8.87;;;3.60;;
19883;SDS011;10104;50.732;10.174;2023-03-12T10:57:00;8.20;;;4.73;;
19883;SDS011;10104;50.732;10.174;2023-03-12T10:59:24;8.47;;;3.87;;
19883;SDS011;10104;50.732;10.174;2023-03-12T11:01:49;9.43;;;3.77;;
19883;SDS011;10104;50.732;10.174;2023-03-12T11:06:38;7.53;;;4.47;;
19883;SDS011;10104;50.732;10.174;2023-03-12T11:09:05;14.07;;;7.80;;
19883;SDS011;10104;50.732;10.174;2023-03-12T11:11:37;6.80;;;3.60;;
19883;SDS011;10104;50.732;10.174;2023-03-12T11:16:40;9.03;;;4.77;;
19883;SDS011;10104;50.732;10.174;2023-03-12T11:19:03;6.63;;;3.73;;
19883;SDS011;10104;50.732;10.174;2023-03-12T11:21:26;7.57;;;4.30;;
19883;SDS011;10104;50.732;10.174;2023-03-12T11:26:17;8.63;;;4.87;;
19883;SDS011;10104;50.732;10.174;2023-03-12T11:28:42;9.53;;;4.10;;
19883;SDS011;10104;50.732;10.174;2023-03-12T11:31:54;8.83;;;4.60;;
19883;SDS011;10104;50.732;10.174;2023-03-12T11:33:59;7.27;;;4.00;;
19883;SDS011;10104;50.732;10.174;2023-03-12T11:36:30;8.40;;;4.10;;
19883;SDS011;10104;50.732;10.174;2023-03-12T11:39:05;8.43;;;4.17;;
19883;SDS011;10104;50.732;10.174;2023-03-12T11:46:57;7.77;;;4.30;;
19883;SDS011;10104;50.732;10.174;2023-03-12T11:49:39;7.60;;;4.40;;
19883;SDS011;10104;50.732;10.174;2023-03-12T11:52:16;6.93;;;4.43;;
19883;SDS011;10104;50.732;10.174;2023-03-12T11:57:32;9.70;;;4.43;;
19883;SDS011;10104;50.732;10.174;2023-03-12T12:05:56;10.43;;;5.30;;
19883;SDS011;10104;50.732;10.174;2023-03-12T12:09:35;9.90;;;6.00;;
19883;SDS011;10104;50.732;10.174;2023-03-12T12:11:51;10.67;;;6.37;;
19883;SDS011;10104;50.732;10.174;2023-03-12T12:27:46;7.70;;;5.63;;
19883;SDS011;10104;50.732;10.174;2023-03-12T12:30:39;8.77;;;5.00;;
19883;SDS011;10104;50.732;10.174;2023-03-12T12:33:19;4.87;;;3.33;;
19883;SDS011;10104;50.732;10.174;2023-03-12T12:35:44;5.60;;;4.00;;
19883;SDS011;10104;50.732;10.174;2023-03-12T12:40:51;5.80;;;3.30;;
19883;SDS011;10104;50.732;10.174;2023-03-12T12:45:49;4.27;;;2.77;;
19883;SDS011;10104;50.732;10.174;2023-03-12T12:48:20;5.60;;;3.10;;
19883;SDS011;10104;50.732;10.174;2023-03-12T12:50:47;4.53;;;2.87;;
19883;SDS011;10104;50.732;10.174;2023-03-12T12:53:22;4.70;;;3.30;;
19883;SDS011;10104;50.732;10.174;2023-03-12T13:01:19;3.60;;;2.80;;
19883;SDS011;10104;50.732;10.174;2023-03-12T13:03:41;3.80;;;2.40;;
19883;SDS011;10104;50.732;10.174;2023-03-12T13:06:05;4.53;;;3.60;;
19883;SDS011;10104;50.732;10.174;2023-03-12T13:08:31;2.90;;;2.60;;
19883;SDS011;10104;50.732;10.174;2023-03-12T13:10:55;2.57;;;2.20;;
19883;SDS011;10104;50.732;10.174;2023-03-12T13:13:26;3.07;;;2.53;;
19883;SDS011;10104;50.732;10.174;2023-03-12T13:15:47;3.90;;;2.63;;
19883;SDS011;10104;50.732;10.174;2023-03-12T13:18:20;2.90;;;2.60;;
19883;SDS011;10104;50.732;10.174;2023-03-12T13:23:28;2.30;;;2.00;;
19883;SDS011;10104;50.732;10.174;2023-03-12T13:26:14;2.50;;;2.30;;
19883;SDS011;10104;50.732;10.174;2023-03-12T13:33:42;2.10;;;1.67;;
19883;SDS011;10104;50.732;10.174;2023-03-12T13:36:10;2.03;;;1.70;;
19883;SDS011;10104;50.732;10.174;2023-03-12T13:41:33;2.00;;;1.77;;
19883;SDS011;10104;50.732;10.174;2023-03-12T13:43:58;3.30;;;1.40;;
19883;SDS011;10104;50.732;10.174;2023-03-12T13:46:27;2.40;;;2.10;;
19883;SDS011;10104;50.732;10.174;2023-03-12T13:48:56;2.97;;;2.70;;
19883;SDS011;10104;50.732;10.174;2023-03-12T13:51:23;2.07;;;1.60;;
19883;SDS011;10104;50.732;10.174;2023-03-12T13:53:47;1.80;;;1.53;;
19883;SDS011;10104;50.732;10.174;2023-03-12T13:56:11;4.40;;;1.70;;
19883;SDS011;10104;50.732;10.174;2023-03-12T13:58:47;1.73;;;1.37;;
19883;SDS011;10104;50.732;10.174;2023-03-12T14:01:31;1.93;;;1.73;;
19883;SDS011;10104;50.732;10.174;2023-03-12T14:04:05;2.47;;;2.00;;
19883;SDS011;10104;50.732;10.174;2023-03-12T14:06:31;1.60;;;1.30;;
19883;SDS011;10104;50.732;10.174;2023-03-12T14:11:56;1.70;;;1.50;;
19883;SDS011;10104;50.732;10.174;2023-03-12T14:17:22;1.93;;;1.60;;
19883;SDS011;10104;50.732;10.174;2023-03-12T14:19:46;1.63;;;1.53;;
19883;SDS011;10104;50.732;10.174;2023-03-12T14:22:12;2.23;;;1.60;;
19883;SDS011;10104;50.732;10.174;2023-03-12T14:24:48;2.27;;;1.80;;
19883;SDS011;10104;50.732;10.174;2023-03-12T14:27:16;1.93;;;1.60;;
19883;SDS011;10104;50.732;10.174;2023-03-12T14:29:45;1.93;;;1.77;;
19883;SDS011;10104;50.732;10.174;2023-03-12T14:32:17;2.73;;;1.73;;
19883;SDS011;10104;50.732;10.174;2023-03-12T14:34:44;3.03;;;2.10;;
19883;SDS011;10104;50.732;10.174;2023-03-12T14:37:12;2.43;;;1.80;;
19883;SDS011;10104;50.732;10.174;2023-03-12T14:39:48;3.33;;;2.20;;
19883;SDS011;10104;50.732;10.174;2023-03-12T14:42:36;2.43;;;2.17;;
19883;SDS011;10104;50.732;10.174;2023-03-12T14:45:09;3.13;;;2.33;;
19883;SDS011;10104;50.732;10.174;2023-03-12T14:47:39;2.77;;;2.10;;
19883;SDS011;10104;50.732;10.174;2023-03-12T14:50:01;2.87;;;2.20;;
19883;SDS011;10104;50.732;10.174;2023-03-12T14:52:27;2.47;;;2.20;;
19883;SDS011;10104;50.732;10.174;2023-03-12T14:54:54;3.17;;;2.37;;
19883;SDS011;10104;50.732;10.174;2023-03-12T14:57:25;3.27;;;2.60;;
19883;SDS011;10104;50.732;10.174;2023-03-12T14:59:54;3.97;;;2.77;;
19883;SDS011;10104;50.732;10.174;2023-03-12T15:02:18;3.63;;;3.10;;
19883;SDS011;10104;50.732;10.174;2023-03-12T15:04:40;4.23;;;2.97;;
19883;SDS011;10104;50.732;10.174;2023-03-12T15:07:03;5.03;;;3.43;;
19883;SDS011;10104;50.732;10.174;2023-03-12T15:09:27;4.30;;;3.57;;
19883;SDS011;10104;50.732;10.174;2023-03-12T15:11:54;4.80;;;3.73;;
19883;SDS011;10104;50.732;10.174;2023-03-12T15:14:25;5.63;;;3.80;;
19883;SDS011;10104;50.732;10.174;2023-03-12T15:16:48;6.70;;;4.40;;
19883;SDS011;10104;50.732;10.174;2023-03-12T15:19:11;5.47;;;4.60;;
19883;SDS011;10104;50.732;10.174;2023-03-12T15:21:34;6.27;;;4.60;;
19883;SDS011;10104;50.732;10.174;2023-03-12T15:23:56;8.87;;;4.73;;
19883;SDS011;10104;50.732;10.174;2023-03-12T15:28:40;6.60;;;5.13;;
19883;SDS011;10104;50.732;10.174;2023-03-12T15:33:26;8.10;;;5.70;;
19883;SDS011;10104;50.732;10.174;2023-03-12T15:38:22;9.73;;;6.07;;
19883;SDS011;10104;50.732;10.174;2023-03-12T15:40:47;8.37;;;6.13;;
19883;SDS011;10104;50.732;10.174;2023-03-12T15:43:14;7.00;;;5.40;;
19883;SDS011;10104;50.732;10.174;2023-03-12T15:45:39;8.27;;;6.00;;
19883;SDS011;10104;50.732;10.174;2023-03-12T15:48:00;8.30;;;5.60;;
19883;SDS011;10104;50.732;10.174;2023-03-12T15:50:36;9.33;;;6.20;;
19883;SDS011;10104;50.732;10.174;2023-03-12T15:55:33;7.90;;;6.03;;
19883;SDS011;10104;50.732;10.174;2023-03-12T15:57:56;9.07;;;6.80;;